Terminal Aerodrome Forecast
Issued by NWS

Home | Current Version | Previous Version | Text Only | Print | Product List | Glossary On
Versions: 1 2 3 4 5 6 7 8 9 10 11 12 13 14
000
FTUS43 KAPX 251730
TAFMBL
TAF
KMBL 251730Z 2518/2618 32004KT P6SM SCT050 BKN250
     FM260000 VRB03KT P6SM BKN250
     FM260300 13004KT 6SM SHRA OVC080
     FM261000 14006KT P6SM SHRA OVC018
     FM261300 18007KT P6SM BKN045
     FM261600 20007KT P6SM BKN060
      AMD LTD TO CLD VIS AND WIND=

USA.gov is the U.S. government's official web portal to all federal, state and local government web resources and services.